Time,TemperatureF,DewpointF,PressureIn,WindDirection,WindDirectionDegrees,WindSpeedMPH,WindSpeedGustMPH,Humidity,HourlyPrecipIn,Conditions,Clouds,dailyrainin,SoftwareType,DateUTC
2013-07-17 06:07:00,73.8,69.3,30.26,West,270,4.3,-999.0,86,-99.99,,,0.00,Acu-Link.com,2013-07-17 10:07:00,
2013-07-17 06:22:00,73.8,69.6,30.26,WSW,247,2.7,-999.0,87,-99.99,,,0.00,Acu-Link.com,2013-07-17 10:22:00,
2013-07-17 06:37:00,73.8,69.6,30.28,WSW,247,4.3,-999.0,87,-99.99,,,0.00,Acu-Link.com,2013-07-17 10:37:00,
2013-07-17 06:53:00,74.1,70.3,30.28,West,270,3.1,-999.0,88,-99.99,,,0.00,Acu-Link.com,2013-07-17 10:53:00,
2013-07-17 07:08:00,74.8,70.7,30.28,NNW,337,4.7,-999.0,87,-99.99,,,0.00,Acu-Link.com,2013-07-17 11:08:00,
2013-07-17 07:23:00,75.4,70.9,30.27,NNW,337,4.7,-999.0,86,-99.99,,,0.00,Acu-Link.com,2013-07-17 11:23:00,
2013-07-17 07:38:00,75.9,71.4,30.28,West,270,6.7,-999.0,86,-99.99,,,0.00,Acu-Link.com,2013-07-17 11:38:00,
2013-07-17 07:53:00,76.5,71.6,30.27,SSW,202,6.7,-999.0,85,-99.99,,,0.00,Acu-Link.com,2013-07-17 11:53:00,
2013-07-17 08:09:00,77.0,71.8,30.27,SW,225,5.8,-999.0,84,-99.99,,,0.00,Acu-Link.com,2013-07-17 12:09:00,
2013-07-17 08:24:00,77.4,72.1,30.27,West,270,6.3,-999.0,84,-99.99,,,0.00,Acu-Link.com,2013-07-17 12:24:00,
2013-07-17 08:39:00,77.9,71.9,30.27,South,180,6.7,-999.0,82,-99.99,,,0.00,Acu-Link.com,2013-07-17 12:39:00,
2013-07-17 08:54:00,78.4,71.7,30.27,WSW,247,6.3,-999.0,80,-99.99,,,0.00,Acu-Link.com,2013-07-17 12:54:00,
2013-07-17 09:09:00,79.0,71.5,30.27,SW,225,6.3,-999.0,78,-99.99,,,0.00,Acu-Link.com,2013-07-17 13:09:00,
2013-07-17 09:25:00,79.5,71.3,30.27,WNW,292,3.1,-999.0,76,-99.99,,,0.00,Acu-Link.com,2013-07-17 13:25:00,
2013-07-17 09:40:00,80.2,71.2,30.27,SW,225,5.1,-999.0,74,-99.99,,,0.00,Acu-Link.com,2013-07-17 13:40:00,
2013-07-17 09:55:00,81.0,72.3,30.27,SSW,202,4.7,-999.0,75,-99.99,,,0.00,Acu-Link.com,2013-07-17 13:55:00,
2013-07-17 10:10:00,81.5,72.4,30.27,SW,225,4.7,-999.0,74,-99.99,,,0.00,Acu-Link.com,2013-07-17 14:10:00,
2013-07-17 10:26:00,82.0,72.5,30.26,North,0,3.1,-999.0,73,-99.99,,,0.00,Acu-Link.com,2013-07-17 14:26:00,
2013-07-17 10:41:00,82.6,73.4,30.26,SSW,202,6.7,-999.0,74,-99.99,,,0.00,Acu-Link.com,2013-07-17 14:41:00,
2013-07-17 10:56:00,83.3,74.1,30.26,SW,225,4.3,-999.0,74,-99.99,,,0.00,Acu-Link.com,2013-07-17 14:56:00,
2013-07-17 11:11:00,83.8,73.4,30.26,NNW,337,2.2,-999.0,71,-99.99,,,0.00,Acu-Link.com,2013-07-17 15:11:00,
2013-07-17 11:26:00,84.4,73.5,30.26,WSW,247,5.1,-999.0,70,-99.99,,,0.00,Acu-Link.com,2013-07-17 15:26:00,
2013-07-17 11:42:00,85.1,73.8,30.25,WNW,292,4.7,-999.0,69,-99.99,,,0.00,Acu-Link.com,2013-07-17 15:42:00,
2013-07-17 11:57:00,85.8,74.4,30.25,West,270,4.3,-999.0,69,-99.99,,,0.00,Acu-Link.com,2013-07-17 15:57:00,
2013-07-17 12:12:00,86.5,74.2,30.25,SW,225,4.7,-999.0,67,-99.99,,,0.00,Acu-Link.com,2013-07-17 16:12:00,
2013-07-17 12:27:00,86.9,73.2,30.24,SW,225,6.3,-999.0,64,-99.99,,,0.00,Acu-Link.com,2013-07-17 16:27:00,
2013-07-17 12:42:00,87.3,74.9,30.24,West,270,6.7,-999.0,67,-99.99,,,0.00,Acu-Link.com,2013-07-17 16:42:00,
2013-07-17 12:58:00,87.4,74.2,30.24,SW,225,3.8,-999.0,65,-99.99,,,0.00,Acu-Link.com,2013-07-17 16:58:00,
2013-07-17 13:13:00,87.4,74.7,30.23,West,270,5.1,-999.0,66,-99.99,,,0.00,Acu-Link.com,2013-07-17 17:13:00,
2013-07-17 13:28:00,87.6,74.4,30.23,West,270,5.8,-999.0,65,-99.99,,,0.00,Acu-Link.com,2013-07-17 17:28:00,
2013-07-17 13:43:00,88.7,74.5,30.22,WSW,247,4.7,-999.0,63,-99.99,,,0.00,Acu-Link.com,2013-07-17 17:43:00,
2013-07-17 13:58:00,89.2,74.0,30.21,SW,225,8.3,-999.0,61,-99.99,,,0.00,Acu-Link.com,2013-07-17 17:58:00,
2013-07-17 14:14:00,89.4,73.7,30.21,West,270,4.7,-999.0,60,-99.99,,,0.00,Acu-Link.com,2013-07-17 18:14:00,
2013-07-17 14:29:00,89.8,73.5,30.20,West,270,8.3,-999.0,59,-99.99,,,0.00,Acu-Link.com,2013-07-17 18:29:00,
2013-07-17 14:44:00,88.5,74.8,30.19,ESE,112,5.8,-999.0,64,-99.99,,,0.00,Acu-Link.com,2013-07-17 18:44:00,
2013-07-17 14:59:00,89.8,74.0,30.19,West,270,5.8,-999.0,60,-99.99,,,0.00,Acu-Link.com,2013-07-17 18:59:00,
2013-07-17 15:15:00,90.0,73.2,30.18,WSW,247,6.7,-999.0,58,-99.99,,,0.00,Acu-Link.com,2013-07-17 19:15:00,
2013-07-17 15:30:00,88.2,73.0,30.18,WNW,292,5.1,-999.0,61,-99.99,,,0.00,Acu-Link.com,2013-07-17 19:30:00,
2013-07-17 15:45:00,89.8,71.4,30.18,SW,225,6.7,-999.0,55,-99.99,,,0.00,Acu-Link.com,2013-07-17 19:45:00,
2013-07-17 16:00:00,89.4,71.1,30.18,ESE,112,3.8,-999.0,55,-99.99,,,0.00,Acu-Link.com,2013-07-17 20:00:00,
2013-07-17 16:15:00,89.6,72.3,30.18,West,270,6.3,-999.0,57,-99.99,,,0.00,Acu-Link.com,2013-07-17 20:15:00,
2013-07-17 16:31:00,89.6,70.2,30.18,West,270,5.1,-999.0,53,-99.99,,,0.00,Acu-Link.com,2013-07-17 20:31:00,
2013-07-17 16:46:00,89.2,69.3,30.17,NW,315,4.3,-999.0,52,-99.99,,,0.00,Acu-Link.com,2013-07-17 20:46:00,
2013-07-17 17:01:00,90.0,68.8,30.16,West,270,7.4,-999.0,50,-99.99,,,0.00,Acu-Link.com,2013-07-17 21:01:00,
2013-07-17 17:16:00,89.2,68.7,30.16,SSW,202,3.8,-999.0,51,-99.99,,,0.00,Acu-Link.com,2013-07-17 21:16:00,
2013-07-17 17:31:00,89.2,68.7,30.16,SSW,202,5.1,-999.0,51,-99.99,,,0.00,Acu-Link.com,2013-07-17 21:31:00,
2013-07-17 17:47:00,89.2,69.8,30.15,WNW,292,4.3,-999.0,53,-99.99,,,0.00,Acu-Link.com,2013-07-17 21:47:00,
2013-07-17 18:02:00,90.0,69.9,30.15,West,270,5.8,-999.0,52,-99.99,,,0.00,Acu-Link.com,2013-07-17 22:02:00,
2013-07-17 18:17:00,91.0,70.4,30.14,SW,225,5.1,-999.0,51,-99.99,,,0.00,Acu-Link.com,2013-07-17 22:17:00,
2013-07-17 18:32:00,89.8,70.3,30.14,NW,315,4.7,-999.0,53,-99.99,,,0.00,Acu-Link.com,2013-07-17 22:32:00,
2013-07-17 18:47:00,90.0,71.0,30.14,NE,45,6.7,-999.0,54,-99.99,,,0.00,Acu-Link.com,2013-07-17 22:47:00,
2013-07-17 19:03:00,90.9,71.9,30.14,WSW,247,6.3,-999.0,54,-99.99,,,0.00,Acu-Link.com,2013-07-17 23:03:00,
2013-07-17 19:18:00,88.7,71.5,30.14,WSW,247,3.1,-999.0,57,-99.99,,,0.00,Acu-Link.com,2013-07-17 23:18:00,
2013-07-17 19:33:00,87.8,71.7,30.15,West,270,3.8,-999.0,59,-99.99,,,0.00,Acu-Link.com,2013-07-17 23:33:00,
2013-07-17 19:48:00,85.1,71.5,30.14,West,270,7.4,-999.0,64,-99.99,,,0.00,Acu-Link.com,2013-07-17 23:48:00,
2013-07-17 20:04:00,82.9,71.7,30.15,SW,225,5.1,-999.0,69,-99.99,,,0.00,Acu-Link.com,2013-07-18 00:04:00,
2013-07-17 20:19:00,81.3,71.4,30.14,SSW,202,6.3,-999.0,72,-99.99,,,0.00,Acu-Link.com,2013-07-18 00:19:00,
2013-07-17 20:34:00,80.6,71.1,30.13,West,270,5.1,-999.0,73,-99.99,,,0.00,Acu-Link.com,2013-07-18 00:34:00,
2013-07-17 20:49:00,80.2,71.2,30.14,NW,315,5.1,-999.0,74,-99.99,,,0.00,Acu-Link.com,2013-07-18 00:49:00,
2013-07-17 21:04:00,79.3,71.1,30.14,SSW,202,4.7,-999.0,76,-99.99,,,0.00,Acu-Link.com,2013-07-18 01:04:00,
2013-07-17 21:20:00,79.2,71.3,30.14,WSW,247,5.8,-999.0,77,-99.99,,,0.00,Acu-Link.com,2013-07-18 01:20:00,
2013-07-17 21:35:00,78.4,71.0,30.14,SW,225,7.4,-999.0,78,-99.99,,,0.00,Acu-Link.com,2013-07-18 01:35:00,
2013-07-17 21:50:00,78.3,70.8,30.15,SW,225,5.8,-999.0,78,-99.99,,,0.00,Acu-Link.com,2013-07-18 01:50:00,
2013-07-17 22:05:00,77.9,70.8,30.15,SW,225,4.3,-999.0,79,-99.99,,,0.00,Acu-Link.com,2013-07-18 02:05:00,
2013-07-17 22:20:00,77.5,70.9,30.16,West,270,6.3,-999.0,80,-99.99,,,0.00,Acu-Link.com,2013-07-18 02:20:00,
2013-07-17 22:35:00,77.4,71.1,30.16,SW,225,5.1,-999.0,81,-99.99,,,0.00,Acu-Link.com,2013-07-18 02:35:00,
2013-07-17 22:51:00,77.2,71.2,30.16,WSW,247,5.8,-999.0,82,-99.99,,,0.00,Acu-Link.com,2013-07-18 02:51:00,
2013-07-17 23:06:00,76.8,71.3,30.16,WNW,292,3.8,-999.0,83,-99.99,,,0.00,Acu-Link.com,2013-07-18 03:06:00,
2013-07-17 23:21:00,76.6,71.4,30.16,SW,225,4.3,-999.0,84,-99.99,,,0.00,Acu-Link.com,2013-07-18 03:21:00,
2013-07-17 23:36:00,76.3,71.4,30.16,West,270,4.7,-999.0,85,-99.99,,,0.00,Acu-Link.com,2013-07-18 03:36:00,
2013-07-17 23:51:00,76.3,71.8,30.16,West,270,4.7,-999.0,86,-99.99,,,0.00,Acu-Link.com,2013-07-18 03:51:00,